Time;durP1;ratioP1;P1;durP2;ratioP2;P2;SDS_P1;SDS_P2;PMS_P1;PMS_P2;Temp;Humidity;BMP_temperature;BMP_pressure;BME280_temperature;BME280_humidity;BME280_pressure;Samples;Min_cycle;Max_cycle;Signal;HPM_P1;HPM_P2
2023/07/02 07:34:31;;;;;;;50.90;20.45;;;;;;;17.92;66.40;96295.25;2083755;27;20980;-59
2023/07/02 07:37:58;;;;;;;67.28;41.15;;;;;;;17.38;67.29;96308.25;2084585;28;20968;-59
2023/07/02 07:40:02;;;;;;;90.32;43.90;;;;;;;17.20;68.58;96307.03;2100690;27;20573;-59
2023/07/02 07:42:09;;;;;;;46.05;26.38;;;;;;;17.53;67.91;96305.38;2102230;27;21070;-61
2023/07/02 07:44:34;;;;;;;58.67;25.77;;;;;;;17.22;66.74;96305.13;2095638;27;20566;-61
2023/07/02 07:45:35;;;;;;;70.22;39.20;;;;;;;17.39;66.90;96312.56;2095140;28;20236;-61
2023/07/02 07:46:37;;;;;;;248.95;123.65;;;;;;;17.11;66.56;96313.84;2093825;28;20189;-61
2023/07/02 07:47:38;;;;;;;78.47;52.92;;;;;;;17.29;66.72;96315.09;2093429;28;20199;-60
2023/07/02 07:48:40;;;;;;;44.75;27.25;;;;;;;17.58;66.82;96303.22;2089746;28;20188;-61
2023/07/02 07:49:42;;;;;;;64.95;43.58;;;;;;;17.64;66.17;96305.38;2086668;28;20204;-61
2023/07/02 07:51:49;;;;;;;169.88;96.57;;;;;;;17.38;66.41;96313.53;2098153;27;20530;-59
2023/07/02 07:52:51;;;;;;;57.08;35.40;;;;;;;17.58;66.52;96300.56;2098038;28;20191;-59
2023/07/02 07:53:52;;;;;;;76.90;49.25;;;;;;;17.95;65.69;96310.88;2093041;28;20944;-60
2023/07/02 07:54:54;;;;;;;61.88;36.65;;;;;;;18.11;65.31;96313.97;2083216;28;20587;-60
2023/07/02 07:57:09;;;;;;;88.65;66.68;;;;;;;17.63;66.12;96306.31;2083448;28;20565;-58
2023/07/02 07:58:10;;;;;;;160.65;64.45;;;;;;;17.76;65.97;96303.56;2083033;28;20800;-59
2023/07/02 07:59:14;;;;;;;115.75;44.80;;;;;;;17.92;65.42;96303.19;2073057;28;20267;-58
2023/07/02 08:00:17;;;;;;;132.45;57.50;;;;;;;17.98;65.67;96300.09;2072328;28;20205;-58
2023/07/02 08:01:18;;;;;;;469.30;191.18;;;;;;;17.94;64.68;96309.19;2072738;28;20201;-58
2023/07/02 08:02:22;;;;;;;500.00;259.00;;;;;;;17.79;65.03;96306.78;2073795;28;20228;-58
2023/07/02 08:03:24;;;;;;;80.85;45.97;;;;;;;17.76;64.98;96307.06;2070646;28;20198;-58
2023/07/02 08:04:25;;;;;;;1434.35;652.92;;;;;;;17.58;65.29;96305.84;2070766;28;20348;-58
2023/07/02 08:05:27;;;;;;;76.45;39.88;;;;;;;17.59;66.37;96303.09;2073052;28;20205;-58
2023/07/02 08:06:29;;;;;;;83.25;53.53;;;;;;;18.09;65.56;96305.34;2074401;28;20878;-58
2023/07/02 08:07:31;;;;;;;128.30;92.32;;;;;;;18.30;64.63;96301.94;2075544;28;20560;-58
2023/07/02 08:08:33;;;;;;;48.22;26.70;;;;;;;18.60;64.60;96300.38;2074222;28;20208;-59
2023/07/02 08:09:34;;;;;;;185.63;129.63;;;;;;;18.20;65.18;96301.81;2073419;28;20251;-58
2023/07/02 08:10:36;;;;;;;126.57;101.90;;;;;;;17.69;66.05;96294.47;2075393;28;20206;-58
2023/07/02 08:11:37;;;;;;;126.30;80.30;;;;;;;17.68;66.07;96301.53;2075201;28;20208;-58
2023/07/02 08:12:39;;;;;;;198.48;134.68;;;;;;;17.76;66.12;96296.50;2074689;28;20198;-58
2023/07/02 08:13:41;;;;;;;389.02;346.40;;;;;;;17.76;65.82;96293.84;2074839;28;20288;-58
2023/07/02 08:14:42;;;;;;;452.30;400.88;;;;;;;17.89;64.72;96292.84;2070921;28;20763;-58
2023/07/02 08:15:44;;;;;;;823.72;723.40;;;;;;;18.16;64.33;96289.00;2071599;28;20206;-59
2023/07/02 08:16:46;;;;;;;467.42;427.15;;;;;;;18.27;64.23;96294.22;2073895;28;20252;-59
2023/07/02 08:17:47;;;;;;;2097.13;999.90;;;;;;;18.36;63.85;96290.84;2070737;28;20228;-59
2023/07/02 08:18:49;;;;;;;1051.10;902.22;;;;;;;18.58;63.33;96292.56;2070762;28;20213;-59
2023/07/02 08:19:50;;;;;;;2248.27;999.90;;;;;;;18.31;62.46;96300.13;2076083;28;20247;-59
2023/07/02 08:20:52;;;;;;;2250.00;999.90;;;;;;;18.57;62.84;96303.28;2074610;28;20204;-59
2023/07/02 08:21:53;;;;;;;2250.00;999.90;;;;;;;18.63;62.51;96294.84;2072983;28;20609;-59
2023/07/02 08:22:55;;;;;;;2221.70;999.90;;;;;;;18.81;61.47;96291.63;2074698;28;20288;-58
2023/07/02 08:23:57;;;;;;;1090.40;814.13;;;;;;;19.07;61.63;96287.66;2074048;28;20282;-59
2023/07/02 08:24:59;;;;;;;1206.18;765.05;;;;;;;18.48;61.75;96302.22;2074526;28;20201;-58
2023/07/02 08:26:00;;;;;;;1469.93;866.97;;;;;;;18.00;63.96;96302.59;2076949;28;20193;-58
2023/07/02 08:27:05;;;;;;;809.42;639.20;;;;;;;18.02;63.57;96285.66;2075554;28;20193;-59
2023/07/02 08:28:06;;;;;;;1348.85;747.63;;;;;;;18.40;62.08;96296.75;2072656;28;20217;-58
2023/07/02 08:29:08;;;;;;;1350.47;835.63;;;;;;;17.88;62.99;96296.47;2073567;28;20236;-59
2023/07/02 08:31:14;;;;;;;987.33;880.03;;;;;;;17.88;64.35;96312.31;2090687;28;20558;-59
2023/07/02 08:32:15;;;;;;;989.10;883.63;;;;;;;18.18;63.14;96302.91;2091152;28;20203;-59
2023/07/02 08:33:17;;;;;;;1277.25;994.22;;;;;;;18.32;62.41;96300.00;2090328;28;20574;-58
2023/07/02 08:34:18;;;;;;;1359.55;957.47;;;;;;;18.47;62.06;96297.91;2086341;28;20252;-58
2023/07/02 08:35:20;;;;;;;1080.75;964.75;;;;;;;18.80;61.98;96300.53;2086967;28;20570;-58
2023/07/02 08:36:21;;;;;;;1614.18;999.90;;;;;;;19.31;61.88;96298.91;2086569;28;20196;-58
2023/07/02 08:37:23;;;;;;;1256.30;871.63;;;;;;;18.72;61.54;96301.16;2085742;28;20312;-59
2023/07/02 08:38:24;;;;;;;913.90;815.13;;;;;;;18.71;62.17;96294.19;2085988;28;20203;-59
2023/07/02 08:39:26;;;;;;;939.45;848.22;;;;;;;18.82;62.77;96295.97;2083665;28;20751;-59
2023/07/02 08:40:28;;;;;;;993.92;801.03;;;;;;;18.69;61.78;96299.63;2084749;28;20276;-59
2023/07/02 08:41:31;;;;;;;1150.97;938.15;;;;;;;18.49;62.58;96298.63;2085083;28;20209;-58
2023/07/02 08:42:33;;;;;;;942.25;810.50;;;;;;;18.37;62.14;96313.69;2085492;28;20291;-59
2023/07/02 08:43:35;;;;;;;815.40;713.15;;;;;;;18.28;62.80;96304.69;2086156;28;20226;-59
2023/07/02 08:44:37;;;;;;;1535.78;852.50;;;;;;;18.31;62.56;96308.91;2086832;28;20199;-59
2023/07/02 08:45:41;;;;;;;855.65;705.25;;;;;;;18.44;62.10;96306.91;2086493;28;20197;-58
2023/07/02 08:46:43;;;;;;;755.85;449.85;;;;;;;18.24;62.29;96302.41;2086646;28;20197;-59
2023/07/02 08:47:45;;;;;;;768.13;601.58;;;;;;;18.40;62.52;96308.13;2086293;28;20599;-59
2023/07/02 08:48:47;;;;;;;911.22;727.72;;;;;;;18.38;62.67;96315.34;2083854;28;20652;-59
2023/07/02 08:49:49;;;;;;;1051.55;852.20;;;;;;;18.85;62.15;96314.22;2084650;28;20196;-59
2023/07/02 08:50:51;;;;;;;1125.00;713.47;;;;;;;18.97;61.69;96312.34;2085282;28;20598;-58
2023/07/02 08:51:54;;;;;;;1120.88;936.60;;;;;;;19.18;61.23;96310.53;2085232;28;20203;-59
2023/07/02 08:52:55;;;;;;;648.13;474.85;;;;;;;19.28;60.73;96309.78;2085607;28;20203;-59
2023/07/02 08:53:57;;;;;;;2250.00;999.90;;;;;;;18.88;60.65;96308.66;2085654;28;20285;-58
2023/07/02 08:54:58;;;;;;;2250.00;999.90;;;;;;;19.02;61.07;96307.53;2086090;28;20197;-59
2023/07/02 08:56:02;;;;;;;624.25;368.17;;;;;;;19.31;60.90;96312.16;2082596;28;20188;-59
2023/07/02 08:57:05;;;;;;;1508.50;796.38;;;;;;;19.77;60.00;96302.03;2084516;28;20200;-59
2023/07/02 08:58:06;;;;;;;2250.00;999.90;;;;;;;19.35;59.12;96305.63;2084417;28;20544;-59
2023/07/02 08:59:08;;;;;;;2250.00;999.90;;;;;;;19.62;59.18;96309.50;2078203;28;20232;-59
2023/07/02 09:00:10;;;;;;;2250.00;999.90;;;;;;;19.15;59.59;96302.88;2078010;28;20252;-59
2023/07/02 09:01:14;;;;;;;2250.00;999.90;;;;;;;19.04;60.36;96306.41;2078180;28;20193;-59
2023/07/02 09:02:15;;;;;;;2250.00;999.90;;;;;;;19.08;60.72;96296.41;2077637;28;20200;-59
2023/07/02 09:03:17;;;;;;;2250.00;999.90;;;;;;;19.21;61.09;96312.09;2078125;28;20202;-59
2023/07/02 09:04:25;;;;;;;1377.45;651.63;;;;;;;19.69;60.59;96308.00;2076655;28;20272;-59
2023/07/02 09:05:27;;;;;;;2250.00;999.90;;;;;;;20.06;59.63;96296.84;2078173;28;20258;-59
2023/07/02 09:06:28;;;;;;;2250.00;999.90;;;;;;;19.81;59.01;96306.13;2076684;28;20201;-59
2023/07/02 09:07:30;;;;;;;2250.00;999.90;;;;;;;19.97;58.77;96306.50;2077477;28;20246;-59
2023/07/02 09:08:34;;;;;;;2250.00;999.90;;;;;;;20.51;57.93;96304.31;2078457;28;20257;-59
2023/07/02 09:09:50;;;;;;;2250.00;999.90;;;;;;;20.77;57.20;96305.63;2075608;28;20287;-59
2023/07/02 09:10:51;;;;;;;2250.00;999.90;;;;;;;20.63;57.12;96306.84;2075453;28;20201;-59
2023/07/02 09:11:53;;;;;;;2250.00;999.90;;;;;;;20.43;57.54;96308.63;2074767;28;20204;-59
2023/07/02 09:13:05;;;;;;;2250.00;999.90;;;;;;;20.08;57.73;96312.66;2077122;28;20193;-59
2023/07/02 09:14:06;;;;;;;2250.00;999.90;;;;;;;19.97;57.95;96303.84;2074535;28;20240;-59
2023/07/02 09:15:08;;;;;;;2250.00;999.90;;;;;;;20.15;57.81;96308.47;2077785;28;20201;-59
2023/07/02 09:16:31;;;;;;;2250.00;999.90;;;;;;;20.17;58.14;96306.53;2078489;28;20194;-60
2023/07/02 09:17:36;;;;;;;2250.00;999.90;;;;;;;19.80;58.34;96310.56;2078616;28;20877;-60
2023/07/02 09:18:38;;;;;;;2250.00;999.90;;;;;;;20.16;57.95;96303.03;2076739;28;20228;-59
2023/07/02 09:19:50;;;;;;;2250.00;999.90;;;;;;;20.03;57.57;96308.56;2075785;28;20708;-59
2023/07/02 09:20:54;;;;;;;2250.00;999.90;;;;;;;20.29;56.88;96316.03;2076774;28;20196;-62
2023/07/02 09:21:59;;;;;;;2250.00;999.90;;;;;;;20.34;56.90;96305.00;2076504;28;20197;-60
2023/07/02 09:23:00;;;;;;;2250.00;999.90;;;;;;;20.51;56.38;96306.97;2077395;28;20271;-60
2023/07/02 09:24:21;;;;;;;2250.00;999.90;;;;;;;20.36;57.20;96303.88;2076062;28;20861;-60
2023/07/02 09:25:33;;;;;;;2250.00;999.90;;;;;;;19.95;57.64;96302.25;2075687;28;20251;-60
2023/07/02 09:26:36;;;;;;;2250.00;999.90;;;;;;;20.04;57.91;96307.59;2077681;28;20355;-60
2023/07/02 09:27:39;;;;;;;2250.00;999.90;;;;;;;19.99;58.01;96311.66;2074889;28;20481;-60
2023/07/02 09:28:40;;;;;;;2250.00;999.90;;;;;;;19.99;58.22;96316.94;2077525;28;20242;-60
2023/07/02 09:29:42;;;;;;;2250.00;999.90;;;;;;;19.56;59.17;96301.13;2078011;28;20197;-60
2023/07/02 09:30:57;;;;;;;2250.00;999.90;;;;;;;19.71;58.76;96316.69;2077514;28;20363;-59
2023/07/02 09:32:07;;;;;;;2250.00;999.90;;;;;;;19.97;58.18;96308.28;2076119;28;20193;-60
2023/07/02 09:33:11;;;;;;;2250.00;999.90;;;;;;;19.93;58.93;96312.19;2077715;28;20668;-60
2023/07/02 09:34:14;;;;;;;2250.00;999.90;;;;;;;20.20;58.65;96307.09;2076582;28;20228;-60
2023/07/02 09:35:16;;;;;;;2250.00;999.90;;;;;;;20.59;58.20;96314.22;2075749;28;20193;-59
2023/07/02 09:36:17;;;;;;;2250.00;999.90;;;;;;;21.12;57.16;96314.81;2073537;28;20261;-60
2023/07/02 09:37:19;;;;;;;2250.00;999.90;;;;;;;20.85;56.46;96305.75;2075299;28;20193;-60
2023/07/02 09:38:21;;;;;;;2250.00;999.90;;;;;;;20.93;56.49;96305.88;2074867;28;20201;-60
2023/07/02 09:39:30;;;;;;;2250.00;999.90;;;;;;;20.75;56.28;96311.06;2075681;28;20580;-59
2023/07/02 09:40:31;;;;;;;2250.00;999.90;;;;;;;20.69;56.09;96312.41;2076045;28;20198;-59
2023/07/02 09:41:33;;;;;;;2250.00;999.90;;;;;;;20.29;56.93;96313.38;2076217;28;20688;-59
2023/07/02 09:42:36;;;;;;;2250.00;999.90;;;;;;;20.34;56.92;96305.84;2072553;28;20201;-59
2023/07/02 09:43:37;;;;;;;2250.00;999.90;;;;;;;20.11;57.00;96302.59;2070605;28;20692;-60
2023/07/02 09:44:40;;;;;;;2250.00;999.90;;;;;;;20.38;57.48;96315.19;2070576;28;20198;-60
2023/07/02 09:45:44;;;;;;;2250.00;999.90;;;;;;;20.75;56.62;96302.25;2070806;28;20235;-59
2023/07/02 09:46:52;;;;;;;2250.00;999.90;;;;;;;21.27;55.07;96301.91;2070648;28;20308;-60
2023/07/02 09:47:57;;;;;;;2250.00;999.90;;;;;;;21.53;55.56;96307.41;2071022;28;20202;-60
2023/07/02 09:48:59;;;;;;;2250.00;999.90;;;;;;;21.68;54.56;96306.00;2068439;28;20287;-59
2023/07/02 09:50:05;;;;;;;2250.00;999.90;;;;;;;21.59;54.12;96308.72;2069685;28;20815;-60
2023/07/02 09:51:07;;;;;;;2250.00;999.90;;;;;;;21.63;54.42;96299.47;2070253;28;20827;-60
2023/07/02 09:52:10;;;;;;;2250.00;999.90;;;;;;;20.86;54.12;96305.63;2071286;28;20202;-60
2023/07/02 09:53:12;;;;;;;2250.00;999.90;;;;;;;20.93;54.81;96297.91;2071408;28;20665;-59
2023/07/02 09:54:13;;;;;;;2250.00;999.90;;;;;;;20.98;54.59;96294.84;2069374;28;20233;-60
2023/07/02 09:55:15;;;;;;;2250.00;999.90;;;;;;;20.88;55.64;96305.47;2070740;28;20190;-59
2023/07/02 09:56:16;;;;;;;2250.00;999.90;;;;;;;21.06;54.45;96294.97;2072047;28;20351;-60
2023/07/02 09:57:18;;;;;;;2250.00;999.90;;;;;;;20.97;54.59;96288.69;2070565;28;20285;-60
2023/07/02 09:58:20;;;;;;;2250.00;999.90;;;;;;;20.90;55.62;96295.56;2072111;28;20208;-60
2023/07/02 09:59:21;;;;;;;2250.00;999.90;;;;;;;20.83;55.72;96286.47;2069687;28;20234;-60
2023/07/02 10:00:22;;;;;;;2250.00;999.90;;;;;;;21.04;55.61;96288.97;2069489;28;20287;-60
2023/07/02 10:01:24;;;;;;;2250.00;999.90;;;;;;;20.94;54.94;96290.78;2069614;28;20197;-59
2023/07/02 10:02:26;;;;;;;2250.00;999.90;;;;;;;20.85;55.48;96284.53;2070915;28;20603;-60
2023/07/02 10:03:31;;;;;;;2250.00;999.90;;;;;;;21.25;55.76;96283.47;2070780;28;20670;-59
2023/07/02 10:04:43;;;;;;;2250.00;999.90;;;;;;;20.59;56.13;96295.66;2071232;28;20501;-59
2023/07/02 10:05:45;;;;;;;2250.00;999.90;;;;;;;20.17;56.34;96295.91;2071634;28;20228;-59
2023/07/02 10:06:52;;;;;;;2250.00;999.90;;;;;;;20.66;56.06;96294.13;2072019;28;20198;-60
2023/07/02 10:07:56;;;;;;;2250.00;999.90;;;;;;;21.05;54.79;96298.59;2072800;28;20205;-60
2023/07/02 10:08:57;;;;;;;2250.00;999.90;;;;;;;20.83;54.35;96295.28;2070116;28;20727;-60
2023/07/02 10:09:59;;;;;;;2250.00;999.90;;;;;;;20.60;54.98;96293.88;2072053;28;20198;-60
2023/07/02 10:11:12;;;;;;;2250.00;999.90;;;;;;;20.55;55.38;96287.16;2071953;28;20198;-60
2023/07/02 10:12:21;;;;;;;2250.00;999.90;;;;;;;20.66;55.72;96295.97;2070163;28;20190;-60
2023/07/02 10:13:28;;;;;;;2250.00;999.90;;;;;;;20.66;56.05;96291.50;2071451;28;20546;-60
2023/07/02 10:14:43;;;;;;;2250.00;999.90;;;;;;;20.32;55.38;96286.59;2070425;28;20707;-60
2023/07/02 10:15:45;;;;;;;1566.85;847.05;;;;;;;20.11;55.12;96296.47;2071261;28;20255;-60
2023/07/02 10:16:53;;;;;;;2250.00;999.90;;;;;;;20.32;55.48;96286.59;2073025;28;20209;-60
2023/07/02 10:17:57;;;;;;;2250.00;999.90;;;;;;;20.43;55.61;96292.72;2072872;28;20194;-60
2023/07/02 10:19:09;;;;;;;2250.00;999.90;;;;;;;20.58;55.50;96298.47;2070342;28;20226;-60
2023/07/02 10:20:12;;;;;;;2250.00;999.90;;;;;;;20.56;55.94;96290.66;2069376;28;20699;-60
2023/07/02 10:21:15;;;;;;;2250.00;999.90;;;;;;;20.29;56.68;96292.19;2069768;28;20250;-60
2023/07/02 10:22:17;;;;;;;2250.00;999.90;;;;;;;19.94;57.71;96298.78;2071081;28;20875;-60
2023/07/02 10:23:18;;;;;;;2250.00;999.90;;;;;;;20.29;57.54;96305.44;2071167;28;20265;-60
2023/07/02 10:24:20;;;;;;;2250.00;999.90;;;;;;;20.50;57.55;96307.94;2071059;28;20221;-60
2023/07/02 10:25:29;;;;;;;2250.00;999.90;;;;;;;20.47;57.72;96302.09;2071632;28;20316;-60
2023/07/02 10:26:31;;;;;;;2250.00;999.90;;;;;;;20.52;56.96;96302.53;2070429;28;20255;-60
2023/07/02 10:27:40;;;;;;;2250.00;999.90;;;;;;;20.20;57.47;96304.44;2069872;28;20317;-60
2023/07/02 10:28:42;;;;;;;2250.00;999.90;;;;;;;19.87;58.14;96301.16;2069817;28;20213;-60
2023/07/02 10:29:50;;;;;;;2250.00;999.90;;;;;;;20.33;57.11;96303.34;2070699;28;20229;-60
2023/07/02 10:30:53;;;;;;;2250.00;999.90;;;;;;;20.83;56.17;96297.91;2071609;28;20229;-60
2023/07/02 10:31:56;;;;;;;2250.00;999.90;;;;;;;21.46;55.66;96291.25;2072595;28;20206;-60
2023/07/02 10:33:11;;;;;;;2250.00;999.90;;;;;;;21.78;53.31;96290.00;2070068;28;20198;-60
2023/07/02 10:34:12;;;;;;;2250.00;999.90;;;;;;;21.98;53.73;96289.94;2071499;28;20285;-60
2023/07/02 10:35:18;;;;;;;1590.95;923.25;;;;;;;22.29;52.26;96293.06;2071018;28;20230;-60
2023/07/02 10:36:20;;;;;;;1165.90;999.90;;;;;;;21.39;51.12;96291.97;2070946;28;20524;-60
2023/07/02 10:37:22;;;;;;;1274.47;999.90;;;;;;;20.80;52.68;96295.56;2072454;28;20236;-60
2023/07/02 10:38:26;;;;;;;1084.60;966.95;;;;;;;20.70;53.83;96294.72;2070485;28;20202;-61
2023/07/02 10:39:31;;;;;;;1158.35;997.65;;;;;;;20.96;53.43;96291.50;2069059;28;20221;-60
2023/07/02 10:40:33;;;;;;;817.22;693.50;;;;;;;20.97;53.43;96295.81;2069633;28;20244;-61
2023/07/02 10:41:34;;;;;;;926.28;808.13;;;;;;;20.63;53.94;96298.88;2070510;28;20243;-60
2023/07/02 10:42:49;;;;;;;847.55;755.85;;;;;;;20.89;53.92;96299.19;2072621;28;20601;-60
2023/07/02 10:43:51;;;;;;;724.55;647.85;;;;;;;20.99;53.67;96291.22;2070083;28;20197;-60
2023/07/02 10:44:52;;;;;;;1048.03;918.13;;;;;;;20.92;53.29;96292.75;2071135;28;20248;-60
2023/07/02 10:45:55;;;;;;;1322.35;999.90;;;;;;;20.53;53.53;96291.78;2071392;28;20205;-60
2023/07/02 10:46:57;;;;;;;1175.25;992.72;;;;;;;20.44;54.51;96297.88;2071943;28;20194;-60
2023/07/02 10:47:59;;;;;;;1436.75;999.90;;;;;;;20.87;54.26;96294.03;2068505;28;20732;-60
2023/07/02 10:49:00;;;;;;;1247.32;999.90;;;;;;;21.10;53.33;96299.00;2068829;28;20218;-60
2023/07/02 10:50:14;;;;;;;1340.93;990.75;;;;;;;21.19;53.04;96292.00;2069418;28;20197;-60
2023/07/02 10:51:15;;;;;;;1423.20;999.90;;;;;;;21.34;53.20;96287.94;2070153;28;20548;-60
2023/07/02 10:52:17;;;;;;;799.83;714.40;;;;;;;21.34;52.93;96295.03;2072054;28;20301;-59
2023/07/02 10:53:19;;;;;;;1205.65;991.53;;;;;;;21.35;53.67;96288.75;2072216;28;20206;-59
2023/07/02 10:54:21;;;;;;;793.63;716.65;;;;;;;21.61;53.01;96293.44;2069631;28;20229;-59
2023/07/02 10:55:24;;;;;;;1179.00;994.63;;;;;;;21.39;52.52;96292.78;2072211;28;20662;-59
2023/07/02 10:56:27;;;;;;;927.35;838.55;;;;;;;21.19;53.01;96289.34;2071207;28;20620;-59
2023/07/02 10:57:30;;;;;;;1000.65;906.47;;;;;;;21.25;52.97;96298.56;2071580;28;20224;-59
2023/07/02 10:58:42;;;;;;;1072.18;954.38;;;;;;;21.15;53.03;96287.97;2070831;28;20198;-59
2023/07/02 10:59:43;;;;;;;999.88;893.97;;;;;;;20.86;53.67;96294.16;2070608;28;20716;-59
2023/07/02 11:00:45;;;;;;;921.05;831.15;;;;;;;21.24;54.12;96296.88;2071154;28;20199;-60
2023/07/02 11:01:50;;;;;;;964.92;874.40;;;;;;;21.89;52.23;96298.78;2071205;28;20324;-60
2023/07/02 11:02:52;;;;;;;1116.00;982.25;;;;;;;21.99;50.04;96297.75;2069455;28;20197;-60
2023/07/02 11:04:04;;;;;;;1464.90;999.90;;;;;;;21.72;52.34;96295.91;2068067;28;20209;-60
2023/07/02 11:05:11;;;;;;;859.15;778.35;;;;;;;22.22;52.21;96291.16;2071768;28;20559;-60
2023/07/02 11:06:13;;;;;;;1001.15;902.08;;;;;;;22.47;50.31;96285.16;2071713;28;20193;-60
2023/07/02 11:07:21;;;;;;;684.60;623.55;;;;;;;22.69;50.07;96292.81;2076454;28;20618;-60
2023/07/02 11:08:34;;;;;;;615.45;559.58;;;;;;;22.33;49.88;96289.16;2075709;28;20351;-60
2023/07/02 11:09:35;;;;;;;1044.47;951.33;;;;;;;22.28;49.30;96293.22;2069818;28;20222;-60
2023/07/02 11:10:37;;;;;;;1033.03;935.70;;;;;;;22.21;49.74;96290.34;2070472;28;20850;-60
2023/07/02 11:11:49;;;;;;;819.28;744.40;;;;;;;22.20;50.73;96296.66;2071214;28;20194;-60
2023/07/02 11:12:51;;;;;;;826.92;752.75;;;;;;;22.12;51.12;96297.41;2070680;28;20284;-60
2023/07/02 11:13:53;;;;;;;689.83;627.88;;;;;;;21.91;51.41;96289.66;2070328;28;20201;-60
2023/07/02 11:14:54;;;;;;;727.55;662.10;;;;;;;21.64;49.94;96291.34;2070169;28;20632;-60
2023/07/02 11:15:56;;;;;;;554.03;500.13;;;;;;;21.21;50.96;96293.53;2069978;28;20213;-60
2023/07/02 11:16:59;;;;;;;806.55;732.30;;;;;;;21.18;51.99;96295.66;2071547;28;20189;-60
2023/07/02 11:18:09;;;;;;;889.45;800.88;;;;;;;21.19;52.54;96292.00;2071085;28;20261;-60
2023/07/02 11:19:11;;;;;;;1149.82;999.90;;;;;;;21.35;52.52;96294.88;2069895;28;20622;-60
2023/07/02 11:20:15;;;;;;;1191.22;999.90;;;;;;;21.67;52.56;96291.06;2071822;28;20548;-60
2023/07/02 11:21:16;;;;;;;1001.13;885.08;;;;;;;21.53;52.59;96299.47;2071790;28;20197;-60
2023/07/02 11:22:18;;;;;;;1162.40;999.90;;;;;;;21.16;53.03;96298.44;2070803;28;20677;-60
2023/07/02 11:23:23;;;;;;;1150.93;999.90;;;;;;;21.06;53.43;96299.44;2071187;28;20198;-60
2023/07/02 11:24:35;;;;;;;1139.78;999.90;;;;;;;21.35;52.99;96294.88;2071372;28;20307;-60
2023/07/02 11:25:37;;;;;;;965.53;865.78;;;;;;;21.71;50.85;96288.09;2075297;28;20197;-60
2023/07/02 11:26:40;;;;;;;1194.32;999.90;;;;;;;22.25;51.22;96288.22;2070902;28;20196;-60
2023/07/02 11:27:42;;;;;;;504.65;451.50;;;;;;;22.34;50.03;96290.81;2068977;28;20297;-60
2023/07/02 11:28:51;;;;;;;904.65;811.15;;;;;;;22.14;50.02;96284.81;2068663;28;20551;-60
2023/07/02 11:29:59;;;;;;;32.28;14.80;;;;;;;21.91;47.85;96281.69;2069414;28;20704;-60
2023/07/02 11:31:03;;;;;;;127.15;116.20;;;;;;;22.63;48.46;96284.47;2070414;28;20241;-60
2023/07/02 11:32:06;;;;;;;100.18;88.47;;;;;;;23.17;48.35;96290.75;2070037;28;20680;-60
2023/07/02 11:33:07;;;;;;;160.68;120.53;;;;;;;23.03;47.39;96282.28;2072260;28;20201;-60
2023/07/02 11:34:20;;;;;;;51.10;36.60;;;;;;;23.29;47.25;96298.31;2070353;28;20218;-60
2023/07/02 11:35:43;;;;;;;29.23;14.57;;;;;;;22.85;47.31;96287.63;2071703;28;20571;-60
2023/07/02 11:36:45;;;;;;;33.25;13.63;;;;;;;23.21;47.92;96286.75;2071960;28;20201;-60
2023/07/02 11:37:48;;;;;;;30.05;12.40;;;;;;;23.23;47.44;96279.47;2070363;28;20233;-60
2023/07/02 11:38:51;;;;;;;33.72;16.17;;;;;;;23.85;47.55;96284.63;2068057;28;20193;-60
2023/07/02 11:39:53;;;;;;;34.83;15.60;;;;;;;23.79;46.61;96286.09;2069603;28;20225;-60
2023/07/02 11:40:54;;;;;;;27.73;13.68;;;;;;;23.70;46.23;96279.03;2069426;28;20211;-60
2023/07/02 11:41:56;;;;;;;26.17;14.85;;;;;;;24.01;46.78;96272.38;2069612;28;20604;-60
2023/07/02 11:42:57;;;;;;;31.63;14.43;;;;;;;23.80;47.03;96278.94;2069855;28;20190;-60
2023/07/02 11:43:59;;;;;;;26.33;14.73;;;;;;;23.91;46.62;96280.50;2068659;28;20291;-60
2023/07/02 11:45:00;;;;;;;24.70;13.10;;;;;;;23.43;45.27;96275.59;2070350;28;20210;-60
2023/07/02 11:46:02;;;;;;;25.38;13.35;;;;;;;24.00;45.10;96271.53;2070517;28;20641;-60
2023/07/02 11:47:05;;;;;;;31.33;15.15;;;;;;;23.82;44.62;96276.94;2069586;28;20233;-60
2023/07/02 11:48:07;;;;;;;23.27;13.40;;;;;;;24.02;44.93;96279.38;2069555;28;20210;-60
2023/07/02 11:49:08;;;;;;;27.60;13.48;;;;;;;23.05;45.04;96261.66;2069877;28;20225;-60
2023/07/02 11:50:10;;;;;;;26.85;13.95;;;;;;;23.17;44.96;96286.22;2069996;28;20205;-60
2023/07/02 11:51:26;;;;;;;28.83;14.45;;;;;;;23.42;44.74;96276.56;2069933;28;20228;-60
2023/07/02 11:52:27;;;;;;;25.25;14.55;;;;;;;23.47;44.44;96274.28;2070182;28;20283;-60
2023/07/02 11:53:29;;;;;;;32.40;14.23;;;;;;;23.17;45.19;96275.59;2070045;28;20202;-60
2023/07/02 11:54:31;;;;;;;30.20;14.60;;;;;;;23.23;45.88;96280.28;2069148;28;20230;-60
2023/07/02 11:55:32;;;;;;;27.40;14.90;;;;;;;22.96;45.63;96276.75;2069414;28;20282;-60
2023/07/02 11:56:34;;;;;;;32.92;13.95;;;;;;;22.59;46.65;96280.44;2068137;28;20206;-60
2023/07/02 11:57:35;;;;;;;39.00;16.60;;;;;;;22.84;46.85;96280.63;2070071;28;20244;-60
2023/07/02 11:58:36;;;;;;;30.20;14.60;;;;;;;23.52;45.71;96284.47;2069749;28;20349;-60
2023/07/02 11:59:38;;;;;;;27.27;14.73;;;;;;;23.61;45.47;96275.50;2069614;28;20198;-60
2023/07/02 12:00:40;;;;;;;35.40;16.08;;;;;;;23.75;45.54;96273.25;2069902;28;20314;-59
2023/07/02 12:01:41;;;;;;;23.90;12.77;;;;;;;24.12;45.74;96285.41;2068973;28;20237;-59
2023/07/02 12:02:43;;;;;;;27.95;14.15;;;;;;;23.87;44.11;96274.63;2069828;28;20233;-60
2023/07/02 12:03:45;;;;;;;27.65;13.93;;;;;;;24.16;44.43;96268.06;2071165;28;20737;-60
2023/07/02 12:04:47;;;;;;;28.17;14.45;;;;;;;24.38;44.18;96268.44;2071603;28;20212;-60
2023/07/02 12:05:49;;;;;;;25.90;13.63;;;;;;;24.45;43.35;96275.66;2067940;28;20281;-59
2023/07/02 12:06:51;;;;;;;26.80;13.73;;;;;;;24.24;43.07;96268.09;2068385;28;20297;-59
2023/07/02 12:07:53;;;;;;;28.77;14.55;;;;;;;24.67;43.01;96267.19;2071118;28;20225;-60
2023/07/02 12:08:54;;;;;;;29.75;14.70;;;;;;;24.81;42.61;96268.34;2069467;28;20202;-60
2023/07/02 12:09:56;;;;;;;24.05;14.07;;;;;;;24.15;43.09;96269.09;2071746;28;20802;-59
2023/07/02 12:10:57;;;;;;;32.58;15.50;;;;;;;23.56;44.60;96269.00;2069956;28;20260;-61
2023/07/02 12:11:59;;;;;;;31.05;15.88;;;;;;;23.44;44.69;96271.94;2066648;28;20202;-62
2023/07/02 12:13:00;;;;;;;29.55;15.52;;;;;;;23.35;45.42;96264.03;2069852;28;20701;-60
2023/07/02 12:14:02;;;;;;;27.08;14.27;;;;;;;23.65;44.20;96265.38;2069377;28;20229;-59
2023/07/02 12:15:03;;;;;;;26.80;14.68;;;;;;;24.19;43.10;96259.75;2069945;28;20592;-60
2023/07/02 12:16:05;;;;;;;26.63;13.68;;;;;;;24.50;42.42;96266.31;2071710;28;20740;-60
2023/07/02 12:17:06;;;;;;;31.98;15.35;;;;;;;24.04;43.73;96262.22;2070386;28;20202;-60
2023/07/02 12:18:09;;;;;;;29.13;14.48;;;;;;;24.16;43.51;96267.25;2069164;28;20205;-60
2023/07/02 12:19:10;;;;;;;33.40;14.30;;;;;;;24.23;42.80;96263.75;2066849;28;20280;-60
2023/07/02 12:20:12;;;;;;;27.60;14.23;;;;;;;24.09;43.85;96270.56;2070910;28;20633;-60
2023/07/02 12:21:14;;;;;;;31.25;15.85;;;;;;;24.12;43.79;96267.59;2071915;28;20562;-60
2023/07/02 12:22:17;;;;;;;25.77;14.90;;;;;;;24.51;42.99;96268.00;2071670;28;20205;-60
2023/07/02 12:23:19;;;;;;;29.77;15.02;;;;;;;24.71;42.50;96268.50;2070822;28;20186;-60
2023/07/02 12:24:20;;;;;;;26.38;13.85;;;;;;;24.70;42.22;96273.03;2070697;28;20228;-60
2023/07/02 12:25:22;;;;;;;30.75;15.32;;;;;;;24.76;41.82;96267.03;2071127;28;20190;-60
2023/07/02 12:26:23;;;;;;;25.00;13.75;;;;;;;25.14;41.80;96265.66;2070410;28;20204;-60
2023/07/02 12:27:26;;;;;;;26.55;13.65;;;;;;;24.54;41.47;96273.00;2068817;28;20213;-61
2023/07/02 12:28:28;;;;;;;25.80;14.50;;;;;;;24.83;41.83;96269.03;2069516;28;20244;-60